Time;durP1;ratioP1;P1;durP2;ratioP2;P2;SDS_P1;SDS_P2;PMS_P1;PMS_P2;Temp;Humidity;BMP_temperature;BMP_pressure;BME280_temperature;BME280_humidity;BME280_pressure;Samples;Min_cycle;Max_cycle;Signal;HPM_P1;HPM_P2
2021/04/24 00:01:48;;;;;;;10.70;5.20;;;;;;;4.69;100.00;101991.16;4904208;29;21034;-75
2021/04/24 00:04:14;;;;;;;9.00;5.13;;;;;;;4.68;100.00;101990.28;4952969;29;20262;-75
2021/04/24 00:06:39;;;;;;;7.87;4.77;;;;;;;4.74;100.00;101980.59;4953713;28;20243;-75
2021/04/24 00:09:05;;;;;;;11.40;5.00;;;;;;;4.84;100.00;101983.75;4952663;29;20199;-75
2021/04/24 00:11:31;;;;;;;9.30;4.80;;;;;;;4.66;100.00;101986.97;4952559;28;20257;-75
2021/04/24 00:14:01;;;;;;;7.97;4.70;;;;;;;4.41;100.00;101982.31;4936924;28;20187;-75
2021/04/24 00:16:26;;;;;;;9.53;5.40;;;;;;;4.50;100.00;101978.44;4905583;29;20223;-75
2021/04/24 00:18:52;;;;;;;8.30;4.70;;;;;;;4.45;100.00;101977.38;4952990;28;20189;-76
2021/04/24 00:21:22;;;;;;;10.87;5.80;;;;;;;4.24;100.00;101981.00;4953634;28;20219;-75
2021/04/24 00:23:48;;;;;;;9.90;5.70;;;;;;;4.34;100.00;101970.72;4936068;29;20593;-76
2021/04/24 00:26:16;;;;;;;11.63;5.60;;;;;;;4.46;100.00;101971.78;4953091;28;20243;-75
2021/04/24 00:28:41;;;;;;;13.17;5.83;;;;;;;4.33;100.00;101976.28;4952787;29;20716;-74
2021/04/24 00:31:07;;;;;;;8.60;5.63;;;;;;;4.26;100.00;101972.72;4936137;28;20743;-75
2021/04/24 00:33:36;;;;;;;11.53;5.07;;;;;;;4.16;100.00;101971.44;4916697;29;20208;-77
2021/04/24 00:36:01;;;;;;;11.57;5.33;;;;;;;4.23;100.00;101979.34;4919239;29;20231;-75
2021/04/24 00:38:27;;;;;;;8.93;5.87;;;;;;;4.47;100.00;101975.31;4917957;29;20183;-75
2021/04/24 00:40:56;;;;;;;10.67;5.63;;;;;;;4.51;100.00;101976.59;4941461;28;20242;-75
2021/04/24 00:43:24;;;;;;;14.13;6.17;;;;;;;4.32;100.00;101972.78;4929077;29;20208;-75
2021/04/24 00:45:50;;;;;;;10.97;5.63;;;;;;;4.31;100.00;101971.09;4912435;29;20259;-76
2021/04/24 00:48:18;;;;;;;11.67;6.10;;;;;;;4.25;100.00;101974.59;4920388;29;20183;-73
2021/04/24 00:50:46;;;;;;;8.47;5.93;;;;;;;4.25;100.00;101968.41;4925858;29;20228;-74
2021/04/24 00:53:14;;;;;;;11.67;6.07;;;;;;;4.45;100.00;101967.47;4922969;29;20215;-74
2021/04/24 00:55:40;;;;;;;11.37;5.97;;;;;;;4.20;100.00;101971.66;4940425;29;20219;-74
2021/04/24 00:58:08;;;;;;;10.47;5.80;;;;;;;4.32;100.00;101974.63;4956780;28;20195;-74
2021/04/24 01:00:36;;;;;;;13.00;6.20;;;;;;;4.15;100.00;101973.28;4953902;28;20219;-74
2021/04/24 01:03:04;;;;;;;15.77;6.87;;;;;;;4.11;100.00;101973.91;4954156;29;20211;-73
2021/04/24 01:05:34;;;;;;;11.73;6.07;;;;;;;4.19;100.00;101971.88;4933365;29;20768;-73
2021/04/24 01:08:03;;;;;;;12.53;6.50;;;;;;;4.16;100.00;101971.44;4933316;29;20191;-74
2021/04/24 01:10:35;;;;;;;13.43;6.60;;;;;;;4.24;100.00;101964.88;4932619;28;20231;-76
2021/04/24 01:13:01;;;;;;;10.40;6.27;;;;;;;4.13;100.00;101977.22;4932281;29;20207;-77
2021/04/24 01:15:26;;;;;;;12.37;6.60;;;;;;;4.21;100.00;101984.09;4931862;29;20310;-73
2021/04/24 01:17:54;;;;;;;15.50;6.97;;;;;;;4.16;100.00;101988.41;4932354;29;20696;-75
2021/04/24 01:20:20;;;;;;;15.50;7.17;;;;;;;4.43;100.00;101982.97;4948231;29;20211;-75
2021/04/24 01:22:46;;;;;;;14.47;7.37;;;;;;;4.52;100.00;101981.75;4931742;29;20255;-75
2021/04/24 01:25:22;;;;;;;13.70;7.67;;;;;;;4.71;100.00;101972.94;4925117;29;20211;-74
2021/04/24 01:27:51;;;;;;;11.37;7.27;;;;;;;4.68;100.00;101967.94;4933439;29;20234;-73
2021/04/24 01:30:22;;;;;;;13.23;6.73;;;;;;;4.79;100.00;101976.25;4936419;28;20227;-75
2021/04/24 01:32:48;;;;;;;12.47;6.73;;;;;;;4.77;100.00;101972.13;4940849;29;20262;-74
2021/04/24 01:35:19;;;;;;;9.03;6.10;;;;;;;4.74;100.00;101972.50;4959850;29;20219;-75
2021/04/24 01:37:44;;;;;;;11.47;6.93;;;;;;;4.75;100.00;101968.81;4937055;29;20585;-74
2021/04/24 01:40:12;;;;;;;10.97;6.87;;;;;;;4.65;100.00;101969.19;4933936;29;20198;-74
2021/04/24 01:42:40;;;;;;;11.80;6.77;;;;;;;4.52;100.00;101965.59;4933336;29;20207;-75
2021/04/24 01:45:10;;;;;;;10.70;6.60;;;;;;;4.44;100.00;101970.34;4942592;28;20211;-74
2021/04/24 01:47:38;;;;;;;14.00;6.83;;;;;;;4.46;100.00;101969.09;4953604;28;20194;-74
2021/04/24 01:50:23;;;;;;;12.10;6.50;;;;;;;4.29;100.00;101966.97;4920058;29;20183;-75
2021/04/24 01:52:51;;;;;;;12.47;6.60;;;;;;;4.20;100.00;101965.47;4934758;29;20227;-74
2021/04/24 01:55:22;;;;;;;12.93;7.17;;;;;;;4.39;100.00;101973.63;4948335;28;20752;-75
2021/04/24 01:57:51;;;;;;;11.87;6.57;;;;;;;4.30;100.00;101964.09;4932284;29;20192;-75
2021/04/24 02:00:29;;;;;;;13.87;6.63;;;;;;;4.44;100.00;101967.66;4915267;28;20183;-75
2021/04/24 02:02:54;;;;;;;12.37;6.77;;;;;;;4.58;100.00;101962.13;4931407;29;20222;-74
2021/04/24 02:05:27;;;;;;;11.80;6.47;;;;;;;4.32;100.00;101967.41;4900595;28;20238;-76
2021/04/24 02:07:59;;;;;;;15.23;7.00;;;;;;;4.24;100.00;101974.78;4908449;29;20202;-76
2021/04/24 02:10:28;;;;;;;11.50;7.13;;;;;;;4.51;100.00;101963.97;4949783;28;20688;-75
2021/04/24 02:12:56;;;;;;;11.63;6.43;;;;;;;4.37;100.00;101967.59;4934177;29;20302;-74
2021/04/24 02:15:24;;;;;;;11.17;7.13;;;;;;;4.48;100.00;101950.09;4934498;28;20245;-73
2021/04/24 02:17:52;;;;;;;12.97;6.77;;;;;;;4.69;100.00;101953.47;4935492;29;20186;-75
2021/04/24 02:20:17;;;;;;;12.47;6.97;;;;;;;4.73;100.00;101955.53;4950755;28;20187;-74
2021/04/24 02:22:43;;;;;;;14.13;6.97;;;;;;;4.86;100.00;101960.13;4950357;28;20298;-74
2021/04/24 02:25:12;;;;;;;10.30;6.80;;;;;;;4.86;100.00;101960.13;4934417;28;20250;-74
2021/04/24 02:27:38;;;;;;;11.97;6.97;;;;;;;4.69;100.00;101961.53;4950495;28;20789;-75
2021/04/24 02:30:08;;;;;;;14.60;6.80;;;;;;;4.74;100.00;101956.38;4935054;29;20195;-75
2021/04/24 02:32:33;;;;;;;10.23;6.53;;;;;;;4.95;100.00;101958.91;4949553;28;20240;-75
2021/04/24 02:34:59;;;;;;;9.33;6.93;;;;;;;5.02;100.00;101955.22;4929044;29;20191;-75
2021/04/24 02:37:24;;;;;;;13.00;6.93;;;;;;;5.15;100.00;101955.22;4899788;29;20235;-75
2021/04/24 02:39:53;;;;;;;11.30;6.87;;;;;;;5.02;100.00;101945.25;4933906;28;20190;-75
2021/04/24 02:42:20;;;;;;;10.07;6.23;;;;;;;5.00;100.00;101952.72;4930446;28;20235;-75
2021/04/24 02:44:49;;;;;;;11.93;6.77;;;;;;;4.89;100.00;101946.25;4916014;29;20194;-76
2021/04/24 02:47:19;;;;;;;12.03;6.70;;;;;;;4.91;100.00;101952.25;4899756;29;20227;-76
2021/04/24 02:49:47;;;;;;;12.93;7.03;;;;;;;4.60;100.00;101944.75;4900409;29;20238;-75
2021/04/24 02:52:18;;;;;;;10.77;6.20;;;;;;;4.61;100.00;101948.25;4914509;29;20318;-75
2021/04/24 02:54:44;;;;;;;13.63;7.47;;;;;;;4.53;100.00;101945.75;4916588;29;20200;-75
2021/04/24 02:57:12;;;;;;;11.10;6.40;;;;;;;4.53;100.00;101948.44;4946737;28;20797;-75
2021/04/24 02:59:40;;;;;;;9.93;5.67;;;;;;;4.36;100.00;101941.75;4931570;29;20184;-74
2021/04/24 03:02:05;;;;;;;12.17;6.47;;;;;;;4.36;100.00;101947.16;4929986;28;20290;-74
2021/04/24 03:04:33;;;;;;;12.73;6.37;;;;;;;4.27;100.00;101951.03;4915542;29;20191;-73
2021/04/24 03:06:58;;;;;;;11.33;6.50;;;;;;;4.37;100.00;101943.41;4933350;29;20279;-74
2021/04/24 03:09:24;;;;;;;11.63;6.27;;;;;;;4.43;100.00;101948.00;4931782;29;20215;-74
2021/04/24 03:11:52;;;;;;;13.20;6.57;;;;;;;4.54;100.00;101936.63;4931752;29;20234;-74
2021/04/24 03:14:20;;;;;;;12.40;6.83;;;;;;;4.59;100.00;101937.69;4950849;29;20180;-74
2021/04/24 03:16:45;;;;;;;10.77;6.60;;;;;;;4.41;100.00;101950.03;4918468;29;20240;-75
2021/04/24 03:19:13;;;;;;;11.40;6.90;;;;;;;4.36;100.00;101947.16;4919088;29;20192;-76
2021/04/24 03:21:41;;;;;;;12.10;6.97;;;;;;;4.40;100.00;101951.09;4934080;29;20227;-75
2021/04/24 03:24:10;;;;;;;9.13;6.83;;;;;;;4.48;100.00;101952.78;4918518;29;20575;-74
2021/04/24 03:26:36;;;;;;;9.83;6.73;;;;;;;4.28;100.00;101944.59;4934576;29;20286;-75
2021/04/24 03:29:02;;;;;;;9.90;6.87;;;;;;;4.08;100.00;101942.03;4934626;29;20193;-75
2021/04/24 03:31:32;;;;;;;10.77;6.30;;;;;;;3.95;100.00;101947.34;4918400;29;20232;-75
2021/04/24 03:33:57;;;;;;;8.93;6.27;;;;;;;3.83;100.00;101944.38;4934203;29;20299;-75
2021/04/24 03:36:24;;;;;;;10.47;6.07;;;;;;;3.78;100.00;101940.63;4934065;29;20298;-75
2021/04/24 03:38:52;;;;;;;11.90;6.90;;;;;;;3.64;100.00;101946.91;4934335;29;20188;-74
2021/04/24 03:41:20;;;;;;;9.70;6.27;;;;;;;3.57;100.00;101946.06;4949045;28;20239;-74
2021/04/24 03:43:45;;;;;;;11.20;6.37;;;;;;;3.59;100.00;101941.34;4917854;29;20219;-74
2021/04/24 03:46:13;;;;;;;9.70;6.20;;;;;;;3.47;100.00;101944.75;4918131;29;20270;-75
2021/04/24 03:48:39;;;;;;;11.53;6.60;;;;;;;3.53;100.00;101934.03;4929729;29;20199;-75
2021/04/24 03:51:04;;;;;;;12.43;6.43;;;;;;;3.51;100.00;101930.72;4937039;28;20697;-74
2021/04/24 03:53:30;;;;;;;13.00;6.43;;;;;;;3.37;100.00;101944.25;4936949;29;20227;-74
2021/04/24 03:55:56;;;;;;;10.70;6.80;;;;;;;3.35;100.00;101934.72;4937039;28;20230;-74
2021/04/24 03:58:21;;;;;;;11.23;6.80;;;;;;;3.22;100.00;101942.66;4905941;29;20175;-74
2021/04/24 04:00:47;;;;;;;11.10;6.57;;;;;;;3.35;100.00;101942.78;4904517;29;20226;-74
2021/04/24 04:03:15;;;;;;;8.80;5.93;;;;;;;3.26;100.00;101943.94;4936487;29;20223;-74
2021/04/24 04:05:49;;;;;;;11.23;6.23;;;;;;;3.24;100.00;101951.34;4952618;28;20616;-74
2021/04/24 04:08:14;;;;;;;13.67;6.37;;;;;;;3.14;100.00;101940.94;4938056;29;20270;-75
2021/04/24 04:10:42;;;;;;;10.03;5.97;;;;;;;3.23;100.00;101944.34;4936760;29;20261;-75
2021/04/24 04:13:08;;;;;;;10.27;6.23;;;;;;;3.16;100.00;101938.91;4952518;29;20199;-74
2021/04/24 04:15:34;;;;;;;12.10;6.20;;;;;;;3.06;100.00;101949.16;4936101;28;21000;-74
2021/04/24 04:18:21;;;;;;;13.53;6.60;;;;;;;3.13;100.00;101947.34;4921492;29;20184;-75
2021/04/24 04:20:48;;;;;;;9.70;5.90;;;;;;;3.20;100.00;101942.03;4952066;28;20781;-74
2021/04/24 04:23:17;;;;;;;11.33;6.93;;;;;;;3.21;100.00;101951.75;4935309;29;20235;-74
2021/04/24 04:25:43;;;;;;;11.67;6.00;;;;;;;3.38;100.00;101947.78;4952453;29;20314;-75
2021/04/24 04:28:08;;;;;;;11.43;6.23;;;;;;;3.22;100.00;101948.88;4952741;29;20191;-74
2021/04/24 04:30:37;;;;;;;10.67;6.50;;;;;;;3.48;100.00;101960.66;4934320;29;20298;-75
2021/04/24 04:33:03;;;;;;;12.37;6.33;;;;;;;3.76;100.00;101958.81;4946720;29;20250;-75
2021/04/24 04:35:28;;;;;;;10.73;6.40;;;;;;;3.86;100.00;101961.94;4926514;29;20227;-75
2021/04/24 04:37:54;;;;;;;11.23;6.17;;;;;;;3.83;100.00;101951.63;4926887;29;20202;-74
2021/04/24 04:40:20;;;;;;;13.43;7.27;;;;;;;3.92;100.00;101953.94;4934262;28;20194;-75
2021/04/24 04:42:50;;;;;;;11.80;6.93;;;;;;;4.00;100.00;101961.03;4939792;29;20200;-75
2021/04/24 04:45:19;;;;;;;12.00;6.70;;;;;;;4.07;100.00;101961.91;4918555;28;20277;-77
2021/04/24 04:47:47;;;;;;;10.47;6.33;;;;;;;4.13;100.00;101966.47;4954240;28;20195;-73
2021/04/24 04:50:15;;;;;;;10.30;6.43;;;;;;;4.27;100.00;101969.03;4919978;28;20704;-75
2021/04/24 04:52:45;;;;;;;10.60;7.00;;;;;;;4.52;100.00;101957.53;4934504;29;20206;-75
2021/04/24 04:55:13;;;;;;;9.63;6.10;;;;;;;4.46;100.00;101965.59;4967737;28;20563;-75
2021/04/24 04:57:39;;;;;;;10.33;6.40;;;;;;;4.60;100.00;101965.44;4968058;28;20194;-75
2021/04/24 05:00:09;;;;;;;7.90;6.47;;;;;;;4.68;100.00;101963.38;4952632;29;20194;-75
2021/04/24 05:02:38;;;;;;;10.50;7.07;;;;;;;4.75;100.00;101963.41;4951314;28;20696;-74
2021/04/24 05:05:04;;;;;;;11.23;6.37;;;;;;;4.91;100.00;101957.66;4951781;28;20638;-74
2021/04/24 05:07:29;;;;;;;15.13;6.63;;;;;;;4.85;100.00;101958.47;4945542;28;20237;-74
2021/04/24 05:09:55;;;;;;;12.63;6.67;;;;;;;4.94;100.00;101951.88;4936105;29;20562;-75
2021/04/24 05:12:20;;;;;;;10.20;6.20;;;;;;;5.15;100.00;101966.81;4950635;29;20235;-74
2021/04/24 05:14:46;;;;;;;10.67;6.73;;;;;;;5.30;100.00;101959.38;4936655;29;20218;-75
2021/04/24 05:17:14;;;;;;;9.47;6.37;;;;;;;5.67;100.00;101962.25;4935433;29;20250;-76
2021/04/24 05:19:40;;;;;;;8.80;5.90;;;;;;;5.67;100.00;101950.66;4936658;29;20250;-74
2021/04/24 05:22:07;;;;;;;14.47;6.63;;;;;;;5.57;100.00;101958.34;4919036;28;20722;-74
2021/04/24 05:24:36;;;;;;;10.27;6.40;;;;;;;5.52;100.00;101958.13;4935840;29;20194;-73
2021/04/24 05:27:02;;;;;;;12.07;6.50;;;;;;;5.44;100.00;101950.28;4935539;29;20749;-75
2021/04/24 05:29:28;;;;;;;9.73;6.17;;;;;;;5.64;100.00;101957.31;4935820;29;20229;-76
2021/04/24 05:31:55;;;;;;;9.87;5.87;;;;;;;5.69;100.00;101951.28;4950400;28;20238;-75
2021/04/24 05:34:21;;;;;;;11.67;6.30;;;;;;;5.53;100.00;101951.69;4920731;29;20273;-74
2021/04/24 05:36:47;;;;;;;9.97;6.70;;;;;;;5.70;100.00;101966.44;4951187;28;20254;-75
2021/04/24 05:39:13;;;;;;;12.60;6.47;;;;;;;5.94;100.00;101955.84;4953406;28;20226;-74
2021/04/24 05:41:39;;;;;;;11.20;6.03;;;;;;;6.12;100.00;101962.22;4919558;29;20645;-75
2021/04/24 05:44:04;;;;;;;11.37;6.23;;;;;;;6.45;100.00;101957.56;4968081;28;20197;-75
2021/04/24 05:46:33;;;;;;;12.73;6.70;;;;;;;6.24;100.00;101960.50;4919829;29;20223;-75
2021/04/24 05:49:01;;;;;;;13.30;6.67;;;;;;;6.37;100.00;101965.88;4951856;29;20226;-74
2021/04/24 05:51:27;;;;;;;11.70;6.50;;;;;;;6.71;100.00;101948.28;4951345;29;20231;-75
2021/04/24 05:53:53;;;;;;;10.43;6.83;;;;;;;6.57;100.00;101962.03;4934803;29;20350;-75
2021/04/24 05:56:23;;;;;;;11.20;6.73;;;;;;;6.63;100.00;101951.22;4952887;28;20234;-75
2021/04/24 05:58:50;;;;;;;11.00;6.20;;;;;;;6.44;100.00;101961.28;4936977;29;20175;-75
2021/04/24 06:01:16;;;;;;;9.33;6.00;;;;;;;6.27;100.00;101965.50;4951932;28;20238;-75
2021/04/24 06:03:44;;;;;;;10.00;5.93;;;;;;;6.58;100.00;101963.72;4951831;29;20217;-75
2021/04/24 06:06:12;;;;;;;12.00;6.10;;;;;;;6.82;100.00;101955.69;4966940;28;20227;-75
2021/04/24 06:08:38;;;;;;;11.57;5.80;;;;;;;7.07;100.00;101961.97;4936694;29;20179;-75
2021/04/24 06:11:05;;;;;;;9.20;5.00;;;;;;;7.27;100.00;101959.97;4935782;29;20278;-73
2021/04/24 06:13:44;;;;;;;10.50;5.77;;;;;;;7.10;100.00;101948.03;4940209;29;20331;-76
2021/04/24 06:16:19;;;;;;;7.40;5.20;;;;;;;7.14;100.00;101960.91;4962724;28;20298;-76
2021/04/24 06:18:51;;;;;;;8.40;5.13;;;;;;;7.26;100.00;101942.94;4976716;28;20191;-75
2021/04/24 06:21:16;;;;;;;6.63;4.67;;;;;;;7.31;99.59;101956.63;4938025;28;20235;-77
2021/04/24 06:23:42;;;;;;;9.20;4.93;;;;;;;7.61;100.00;101952.22;4953971;29;20590;-76
2021/04/24 06:26:12;;;;;;;8.50;4.80;;;;;;;7.94;98.18;101954.38;4938669;29;20238;-76
2021/04/24 06:28:40;;;;;;;9.83;4.80;;;;;;;8.05;96.96;101946.34;4957051;28;20198;-76
2021/04/24 06:31:10;;;;;;;10.00;5.00;;;;;;;7.87;97.15;101941.97;4954875;28;20238;-76
2021/04/24 06:33:44;;;;;;;7.53;4.70;;;;;;;7.77;95.08;101942.47;4947298;29;20214;-77
2021/04/24 06:36:19;;;;;;;9.50;5.00;;;;;;;7.88;94.58;101935.53;4918830;29;20750;-75
2021/04/24 06:38:45;;;;;;;9.17;4.30;;;;;;;8.11;92.75;101944.66;4955618;28;20201;-76
2021/04/24 06:41:12;;;;;;;8.40;5.47;;;;;;;8.12;93.31;101941.72;4921879;29;20298;-76
2021/04/24 06:43:40;;;;;;;8.07;4.67;;;;;;;8.22;92.31;101947.47;4901448;29;20210;-77
2021/04/24 06:46:07;;;;;;;11.43;4.90;;;;;;;8.49;91.17;101943.38;4947901;28;20233;-76
2021/04/24 06:48:35;;;;;;;9.80;4.80;;;;;;;8.63;90.52;101940.25;4953985;29;20191;-75
2021/04/24 06:51:08;;;;;;;10.43;4.57;;;;;;;8.54;90.07;101946.22;4948389;28;20230;-75
2021/04/24 06:53:34;;;;;;;10.13;4.23;;;;;;;9.07;86.58;101929.84;4919795;29;20588;-76
2021/04/24 06:56:02;;;;;;;11.73;4.80;;;;;;;8.48;89.25;101936.31;4903357;29;20231;-75
2021/04/24 06:58:30;;;;;;;8.40;4.60;;;;;;;8.83;86.55;101936.22;4904847;29;20180;-77
2021/04/24 07:00:56;;;;;;;8.70;4.67;;;;;;;8.94;84.77;101934.63;4943996;29;20739;-75
2021/04/24 07:03:28;;;;;;;9.07;4.33;;;;;;;8.89;85.31;101938.00;4930867;29;20207;-76
2021/04/24 07:05:53;;;;;;;9.67;4.23;;;;;;;9.03;84.60;101938.66;4915186;29;20247;-76
2021/04/24 07:08:19;;;;;;;8.40;3.70;;;;;;;9.43;81.91;101926.97;4940121;29;20214;-78
2021/04/24 07:10:52;;;;;;;9.00;4.20;;;;;;;9.31;81.53;101928.84;4959235;28;20293;-76
2021/04/24 07:13:20;;;;;;;8.40;3.87;;;;;;;9.00;82.74;101941.84;4940181;29;20574;-77
2021/04/24 07:15:46;;;;;;;7.37;3.40;;;;;;;9.03;81.16;101936.78;4939143;28;20232;-75
2021/04/24 07:18:11;;;;;;;10.83;3.77;;;;;;;9.46;79.44;101923.78;4953506;29;20192;-75
2021/04/24 07:20:39;;;;;;;9.27;3.57;;;;;;;9.15;80.63;101934.91;4942505;28;20884;-74
2021/04/24 07:23:05;;;;;;;10.03;3.80;;;;;;;8.87;81.45;101948.25;4927811;29;20230;-75
2021/04/24 07:25:30;;;;;;;8.97;3.57;;;;;;;8.46;82.79;101939.25;4949063;28;20241;-75
2021/04/24 07:27:56;;;;;;;8.23;3.57;;;;;;;8.82;82.45;101939.16;4929775;29;20211;-75
2021/04/24 07:30:22;;;;;;;7.83;3.40;;;;;;;8.70;80.97;101934.75;4937847;28;20202;-76
2021/04/24 07:32:50;;;;;;;8.80;3.50;;;;;;;8.62;80.92;101937.78;4924927;29;20214;-76
2021/04/24 07:35:16;;;;;;;7.57;3.60;;;;;;;8.50;83.08;101947.75;4958510;28;20186;-80
2021/04/24 07:37:44;;;;;;;11.77;3.87;;;;;;;8.54;85.92;101952.47;4942605;29;20187;-78
2021/04/24 07:40:13;;;;;;;11.33;3.87;;;;;;;9.08;80.57;101938.78;4957939;28;20187;-77
2021/04/24 07:42:42;;;;;;;10.37;3.73;;;;;;;9.11;80.86;101944.56;4957842;29;20219;-76
2021/04/24 07:45:12;;;;;;;8.43;2.90;;;;;;;9.23;78.70;101940.03;4949669;28;20675;-76
2021/04/24 07:47:38;;;;;;;7.57;3.40;;;;;;;9.30;78.12;101938.00;4922780;29;20607;-78
2021/04/24 07:50:08;;;;;;;10.93;3.57;;;;;;;9.09;77.43;101940.47;4910280;28;20187;-77
2021/04/24 07:52:34;;;;;;;7.20;3.30;;;;;;;9.00;77.38;101941.84;4956356;28;20254;-76
2021/04/24 07:55:09;;;;;;;8.73;3.40;;;;;;;8.67;79.51;101948.78;4943890;29;20198;-76
2021/04/24 07:57:41;;;;;;;8.27;3.40;;;;;;;8.66;80.40;101937.13;4959065;28;20325;-76
2021/04/24 08:00:12;;;;;;;9.03;3.07;;;;;;;8.71;79.57;101942.66;4958107;29;20171;-75
2021/04/24 08:02:40;;;;;;;8.83;3.40;;;;;;;9.33;77.95;101937.56;4941469;29;20215;-76
2021/04/24 08:05:06;;;;;;;7.73;3.33;;;;;;;9.59;74.33;101937.94;4957240;28;20191;-76
2021/04/24 08:07:34;;;;;;;7.70;2.93;;;;;;;9.40;71.52;101938.28;4941366;29;20587;-75
2021/04/24 08:10:06;;;;;;;8.63;3.30;;;;;;;9.71;73.44;101944.22;4957748;29;20214;-75
2021/04/24 08:12:34;;;;;;;7.30;3.00;;;;;;;10.03;70.00;101935.50;4941472;28;20238;-76
2021/04/24 08:15:00;;;;;;;8.03;3.17;;;;;;;9.86;72.56;101934.53;4957416;28;20183;-77
2021/04/24 08:17:28;;;;;;;7.50;3.00;;;;;;;10.13;70.16;101933.84;4940400;29;20234;-76
2021/04/24 08:19:56;;;;;;;6.47;2.90;;;;;;;10.21;66.81;101940.81;4942363;29;20211;-76
2021/04/24 08:22:22;;;;;;;7.00;3.03;;;;;;;10.11;67.06;101944.13;4955704;28;20249;-76
2021/04/24 08:24:50;;;;;;;7.07;3.00;;;;;;;9.70;70.48;101945.28;4955652;29;20187;-76
2021/04/24 08:27:18;;;;;;;9.77;2.97;;;;;;;10.30;67.46;101933.94;4959673;28;20274;-77
2021/04/24 08:29:46;;;;;;;8.07;3.00;;;;;;;10.14;67.92;101938.19;4926370;29;20273;-76
2021/04/24 08:32:14;;;;;;;8.73;2.37;;;;;;;10.19;65.54;101934.78;4972940;28;20219;-75
2021/04/24 08:34:45;;;;;;;8.13;2.97;;;;;;;10.00;64.22;101938.72;4960369;28;20202;-77
2021/04/24 08:37:15;;;;;;;10.00;3.00;;;;;;;10.20;63.14;101942.69;4959217;28;20607;-77
2021/04/24 08:39:45;;;;;;;6.10;3.13;;;;;;;10.21;64.53;101938.91;4956342;28;20194;-77
2021/04/24 08:42:13;;;;;;;6.90;2.80;;;;;;;10.54;61.42;101931.75;4955516;28;20235;-76
2021/04/24 08:44:38;;;;;;;9.80;3.30;;;;;;;10.40;63.85;101935.81;4924661;29;20218;-76
2021/04/24 08:47:07;;;;;;;7.77;3.00;;;;;;;10.03;62.25;101932.78;4938738;29;20235;-76
2021/04/24 08:49:35;;;;;;;7.83;2.93;;;;;;;10.15;62.46;101939.03;4920792;29;20306;-75
2021/04/24 08:52:01;;;;;;;5.37;2.37;;;;;;;10.65;62.14;101925.44;4935591;29;20278;-75
2021/04/24 08:54:29;;;;;;;4.67;2.00;;;;;;;10.65;55.97;101939.03;4937782;29;20239;-76
2021/04/24 08:56:55;;;;;;;6.27;2.30;;;;;;;10.08;56.22;101935.63;4935703;29;20231;-75
2021/04/24 08:59:23;;;;;;;8.10;2.27;;;;;;;10.54;57.97;101934.47;4938671;29;20195;-76
2021/04/24 09:01:50;;;;;;;7.73;2.53;;;;;;;10.98;54.87;101926.38;4970619;28;20250;-75
2021/04/24 09:04:17;;;;;;;7.13;2.27;;;;;;;11.14;55.15;101929.13;4957200;28;20195;-75
2021/04/24 09:06:48;;;;;;;6.33;2.23;;;;;;;11.00;56.30;101937.00;4953246;29;20607;-76
2021/04/24 09:09:18;;;;;;;5.10;2.20;;;;;;;10.50;54.77;101933.28;4967203;28;20191;-75
2021/04/24 09:11:45;;;;;;;7.23;2.27;;;;;;;10.39;55.11;101938.75;4933563;28;20228;-76
2021/04/24 09:14:12;;;;;;;4.83;2.07;;;;;;;10.35;54.12;101939.47;4935922;29;20178;-76
2021/04/24 09:16:38;;;;;;;6.80;2.30;;;;;;;10.37;53.36;101928.13;4934044;28;20234;-77
2021/04/24 09:19:27;;;;;;;4.77;2.13;;;;;;;11.05;52.00;101929.75;4936281;29;20642;-77
2021/04/24 09:22:13;;;;;;;5.83;2.17;;;;;;;10.41;51.09;101942.88;4932665;28;20224;-75
2021/04/24 09:24:39;;;;;;;4.67;1.97;;;;;;;10.44;51.92;101945.13;4964839;28;20236;-75
2021/04/24 09:27:08;;;;;;;10.40;3.17;;;;;;;11.32;50.53;101928.91;4972234;28;20776;-77
2021/04/24 09:29:36;;;;;;;5.60;2.20;;;;;;;12.00;49.03;101917.50;4956818;29;20202;-76
2021/04/24 09:32:24;;;;;;;4.23;1.80;;;;;;;11.73;46.01;101928.53;4955456;28;20238;-76
2021/04/24 09:34:55;;;;;;;2.93;1.10;;;;;;;11.16;43.21;101940.56;4954749;29;20926;-76
2021/04/24 09:37:23;;;;;;;3.60;1.27;;;;;;;10.95;40.66;101936.91;4952478;28;20292;-77
2021/04/24 09:39:53;;;;;;;1.43;1.30;;;;;;;11.04;42.36;101932.72;4937473;29;20186;-75
2021/04/24 09:43:04;;;;;;;3.53;1.27;;;;;;;11.01;41.98;101922.34;4953147;28;20219;-76
2021/04/24 09:45:40;;;;;;;3.33;1.30;;;;;;;11.77;41.70;101924.22;4918029;29;20242;-77
2021/04/24 09:48:22;;;;;;;4.13;1.73;;;;;;;12.40;40.96;101912.63;4938696;29;20300;-77
2021/04/24 09:50:48;;;;;;;3.40;1.40;;;;;;;12.64;41.47;101919.47;4954695;28;20219;-74
2021/04/24 09:53:19;;;;;;;3.03;1.77;;;;;;;12.93;41.95;101913.53;4955911;28;20240;-77
2021/04/24 09:55:52;;;;;;;4.83;1.90;;;;;;;12.64;41.66;101909.38;4961860;28;20275;-74
2021/04/24 09:58:31;;;;;;;3.07;1.83;;;;;;;12.98;41.44;101905.41;4936061;29;20278;-76
2021/04/24 10:01:16;;;;;;;4.70;1.70;;;;;;;13.33;41.68;101901.09;4936483;28;20238;-77
2021/04/24 10:03:41;;;;;;;4.43;1.70;;;;;;;13.03;42.14;101900.81;4935120;29;20214;-77
2021/04/24 10:06:28;;;;;;;4.27;1.50;;;;;;;12.70;41.37;101914.59;4945150;29;20234;-76
2021/04/24 10:09:21;;;;;;;3.90;1.43;;;;;;;11.87;41.70;101910.75;4955665;28;20607;-77
2021/04/24 10:11:53;;;;;;;3.57;1.53;;;;;;;11.96;41.42;101905.47;4953123;28;20233;-76
2021/04/24 10:14:37;;;;;;;2.80;1.50;;;;;;;12.17;41.08;101901.94;4955272;28;20187;-75
2021/04/24 10:17:04;;;;;;;3.47;1.57;;;;;;;12.67;40.72;101886.22;4951901;28;20227;-76
2021/04/24 10:19:34;;;;;;;3.47;1.60;;;;;;;13.20;40.89;101893.34;4952595;28;20221;-75
2021/04/24 10:22:00;;;;;;;5.33;1.40;;;;;;;13.93;39.23;101886.81;4962666;28;20227;-75
2021/04/24 10:24:26;;;;;;;5.03;1.60;;;;;;;13.15;40.41;101883.22;4968856;29;20182;-73
2021/04/24 10:26:55;;;;;;;4.77;1.60;;;;;;;13.20;40.11;101882.44;4969039;28;20306;-75
2021/04/24 10:29:21;;;;;;;3.50;1.67;;;;;;;12.76;41.19;101894.53;4939735;29;20214;-76
2021/04/24 10:31:51;;;;;;;4.47;1.57;;;;;;;12.76;41.45;101891.78;4966594;28;20235;-75
2021/04/24 10:34:17;;;;;;;4.77;1.63;;;;;;;13.44;40.23;101890.00;4955545;29;20218;-74
2021/04/24 10:36:42;;;;;;;3.87;1.70;;;;;;;14.18;38.45;101871.41;4921703;29;20250;-74
2021/04/24 10:39:17;;;;;;;2.90;1.60;;;;;;;13.90;39.39;101879.97;4953896;29;20650;-75
2021/04/24 10:41:46;;;;;;;7.43;1.90;;;;;;;12.74;42.18;101887.66;4941975;29;20221;-75
2021/04/24 10:44:14;;;;;;;3.97;1.30;;;;;;;12.23;41.37;101892.75;4886448;29;20183;-73
2021/04/24 10:46:49;;;;;;;6.20;1.40;;;;;;;12.40;39.97;101885.38;4901888;29;20242;-74
2021/04/24 10:49:15;;;;;;;5.07;1.90;;;;;;;12.69;40.36;101877.53;4925400;29;20310;-76
2021/04/24 10:52:03;;;;;;;4.27;1.40;;;;;;;12.57;39.70;101881.47;4947766;28;20226;-75
2021/04/24 10:54:36;;;;;;;2.20;1.20;;;;;;;12.64;39.61;101881.28;4951692;29;20639;-75
2021/04/24 10:57:03;;;;;;;4.70;2.07;;;;;;;13.39;38.84;101875.47;4935050;29;20223;-75
2021/04/24 10:59:30;;;;;;;4.03;1.50;;;;;;;13.62;40.54;101875.94;4919727;29;20654;-75
2021/04/24 11:02:01;;;;;;;3.70;1.30;;;;;;;13.42;38.35;101875.78;4918560;29;20262;-74
2021/04/24 11:04:50;;;;;;;2.77;1.40;;;;;;;12.72;39.18;101881.63;4952084;28;20183;-74
2021/04/24 11:07:24;;;;;;;4.47;1.53;;;;;;;12.98;39.79;101884.41;4919881;29;20618;-75
2021/04/24 11:10:14;;;;;;;3.30;1.40;;;;;;;13.31;37.35;101878.69;4951780;28;20626;-73
2021/04/24 11:12:47;;;;;;;2.87;1.60;;;;;;;13.34;36.73;101875.47;4944257;29;20222;-74
2021/04/24 11:15:14;;;;;;;3.53;1.70;;;;;;;14.54;36.74;101857.63;4935052;28;20238;-76
2021/04/24 11:17:40;;;;;;;3.50;1.37;;;;;;;14.64;34.85;101858.47;4951015;29;20194;-76
2021/04/24 11:20:11;;;;;;;3.63;1.70;;;;;;;14.91;34.33;101858.22;4950923;29;20191;-73
2021/04/24 11:22:37;;;;;;;4.97;1.80;;;;;;;14.36;35.38;101862.75;4933762;29;20219;-74
2021/04/24 11:25:15;;;;;;;4.20;1.53;;;;;;;13.33;37.13;101871.06;4949996;28;20183;-75
2021/04/24 11:28:03;;;;;;;4.47;1.80;;;;;;;12.97;38.62;101871.03;4950835;29;20202;-74
2021/04/24 11:30:56;;;;;;;5.43;2.00;;;;;;;13.23;37.09;101866.38;4917894;28;20234;-77